createdAt,value
2023-03-06T00:01:57.232Z,31.01
2023-03-06T00:05:57.604Z,27.73
2023-03-06T00:09:57.493Z,34.43
2023-03-06T00:13:57.649Z,31.05
2023-03-06T00:17:57.851Z,27.18
2023-03-06T00:21:58.032Z,29.72
2023-03-06T00:25:58.228Z,32.02
2023-03-06T00:29:58.363Z,29.52
2023-03-06T00:33:58.521Z,32.07
2023-03-06T00:37:58.687Z,31.08
2023-03-06T00:41:58.861Z,28.07
2023-03-06T00:45:58.993Z,28.07
2023-03-06T00:49:59.208Z,29.02
2023-03-06T00:53:59.303Z,31.98
2023-03-06T00:57:59.367Z,25.60
2023-03-06T01:01:59.551Z,28.81
2023-03-06T01:05:59.641Z,28.73
2023-03-06T01:09:59.850Z,30.19
2023-03-06T01:13:59.948Z,26.98
2023-03-06T01:18:00.134Z,31.41
2023-03-06T01:22:00.208Z,29.09
2023-03-06T01:26:00.305Z,26.63
2023-03-06T01:30:00.460Z,28.75
2023-03-06T01:34:00.547Z,27.66
2023-03-06T01:38:00.621Z,30.40
2023-03-06T01:42:00.765Z,27.29
2023-03-06T01:46:00.927Z,30.35
2023-03-06T01:50:00.929Z,26.67
2023-03-06T01:54:00.980Z,29.81
2023-03-06T01:58:01.081Z,27.23
2023-03-06T02:02:01.224Z,30.67
2023-03-06T02:06:01.250Z,25.80
2023-03-06T02:10:01.349Z,27.53
2023-03-06T02:14:01.384Z,29.14
2023-03-06T02:18:01.526Z,32.37
2023-03-06T02:22:01.602Z,32.31
2023-03-06T02:26:01.682Z,30.63
2023-03-06T02:30:01.652Z,26.97
2023-03-06T02:34:01.770Z,31.29
2023-03-06T02:38:01.814Z,27.48
2023-03-06T02:42:01.937Z,27.72
2023-03-06T02:46:02.041Z,32.31
2023-03-06T02:50:02.090Z,28.95
2023-03-06T02:54:02.142Z,27.33
2023-03-06T02:58:02.231Z,31.72
2023-03-06T03:02:02.290Z,32.02
2023-03-06T03:06:02.351Z,28.81
2023-03-06T03:10:02.411Z,30.70
2023-03-06T03:14:02.462Z,29.32
2023-03-06T03:18:02.492Z,25.28
2023-03-06T03:22:02.617Z,26.95
2023-03-06T03:26:02.634Z,32.31
2023-03-06T03:30:02.696Z,30.62
2023-03-06T03:34:02.797Z,27.76
2023-03-06T03:38:02.852Z,29.37
2023-03-06T03:42:03.292Z,30.87
2023-03-06T03:46:03.056Z,28.33
2023-03-06T03:50:03.173Z,27.46
2023-03-06T03:54:03.383Z,29.01
2023-03-06T03:58:03.598Z,28.77
2023-03-06T04:02:03.803Z,26.95
2023-03-06T04:06:03.866Z,28.37
2023-03-06T04:10:04.059Z,33.14
2023-03-06T04:14:04.261Z,32.57
2023-03-06T04:18:04.429Z,27.41
2023-03-06T04:22:04.584Z,31.73
2023-03-06T04:26:04.739Z,30.45
2023-03-06T04:30:04.804Z,25.00
2023-03-06T04:34:04.879Z,28.61
2023-03-06T04:38:04.896Z,27.63
2023-03-06T04:42:05.032Z,31.81
2023-03-06T04:46:05.195Z,29.34
2023-03-06T04:50:05.185Z,26.40
2023-03-06T04:54:05.276Z,32.42
2023-03-06T04:58:05.324Z,28.87
2023-03-06T05:02:05.409Z,29.85
2023-03-06T05:06:05.481Z,25.13
2023-03-06T05:10:05.556Z,27.64
2023-03-06T05:14:05.617Z,26.07
2023-03-06T05:18:05.715Z,27.22
2023-03-06T05:22:05.790Z,25.00
2023-03-06T05:26:05.892Z,31.39
2023-03-06T05:30:06.001Z,25.37
2023-03-06T05:34:06.075Z,30.19
2023-03-06T05:38:06.250Z,32.01
2023-03-06T05:42:06.324Z,32.14
2023-03-06T05:46:06.449Z,30.19
2023-03-06T05:50:06.499Z,33.58
2023-03-06T05:54:06.495Z,34.27
2023-03-06T05:58:06.728Z,34.73
2023-03-06T06:02:06.750Z,36.72
2023-03-06T06:06:06.801Z,36.38
2023-03-06T06:10:06.916Z,31.71
2023-03-06T06:14:06.948Z,27.66
2023-03-06T06:18:07.072Z,28.15
2023-03-06T06:22:07.121Z,25.32
2023-03-06T06:26:07.388Z,27.60
2023-03-06T06:30:07.397Z,26.26
2023-03-06T06:34:08.456Z,27.84
2023-03-06T06:38:07.659Z,26.54
2023-03-06T06:42:28.541Z,37.60
2023-03-06T06:46:38.785Z,29.64
2023-03-06T06:50:08.757Z,34.63
2023-03-06T06:54:07.664Z,26.05
2023-03-06T06:58:07.648Z,27.68
2023-03-06T07:02:07.591Z,29.04
2023-03-06T07:06:07.559Z,31.14
2023-03-06T07:10:07.896Z,28.39
2023-03-06T07:14:07.509Z,26.08
2023-03-06T07:18:07.478Z,27.92
2023-03-06T07:22:07.391Z,28.41
2023-03-06T07:26:07.375Z,29.13
2023-03-06T07:30:07.374Z,28.03
2023-03-06T07:34:07.410Z,34.67
2023-03-06T07:38:07.571Z,65.31
2023-03-06T07:42:07.909Z,92.99
2023-03-06T07:46:08.053Z,81.58
2023-03-06T07:50:08.107Z,61.57
2023-03-06T07:54:08.380Z,51.42
2023-03-06T07:58:08.484Z,54.55
2023-03-06T08:02:08.714Z,41.89
2023-03-06T08:06:08.844Z,39.33
2023-03-06T08:10:08.989Z,35.92
2023-03-06T08:14:09.190Z,36.42
2023-03-06T08:18:09.317Z,35.09
2023-03-06T08:22:09.497Z,35.18
2023-03-06T08:26:09.632Z,30.10
2023-03-06T08:30:09.833Z,32.26
2023-03-06T08:34:11.419Z,36.27
2023-03-06T08:38:10.000Z,33.92
2023-03-06T08:42:10.458Z,39.86
2023-03-06T08:46:10.130Z,37.08
2023-03-06T08:50:10.293Z,37.61
2023-03-06T08:54:10.382Z,37.36
2023-03-06T08:58:11.028Z,32.53
2023-03-06T09:02:10.626Z,31.13
2023-03-06T09:06:10.792Z,31.40
2023-03-06T09:10:10.814Z,28.16
2023-03-06T09:14:10.941Z,33.65
2023-03-06T09:18:11.474Z,55.38
2023-03-06T09:22:11.206Z,42.42
2023-03-06T09:26:11.260Z,65.33
2023-03-06T09:30:11.484Z,68.41
2023-03-06T09:34:11.582Z,52.30
2023-03-06T09:38:11.717Z,40.37
2023-03-06T09:42:11.754Z,32.14
2023-03-06T09:46:12.041Z,40.64
2023-03-06T09:50:11.936Z,37.29
2023-03-06T09:54:12.421Z,32.17
2023-03-06T09:58:12.471Z,34.02
2023-03-06T10:02:12.338Z,31.56
2023-03-06T10:06:12.334Z,29.50
2023-03-06T10:10:12.966Z,26.26
2023-03-06T10:14:14.536Z,29.62
2023-03-06T10:18:12.658Z,28.86
2023-03-06T10:22:12.717Z,28.26
2023-03-06T10:26:12.895Z,28.69
2023-03-06T10:30:12.949Z,31.58
2023-03-06T10:34:13.495Z,35.40
2023-03-06T10:38:13.139Z,39.39
2023-03-06T10:42:13.479Z,41.59
2023-03-06T10:46:13.396Z,42.30
2023-03-06T10:50:13.429Z,41.45
2023-03-06T10:54:13.587Z,43.09
2023-03-06T10:58:13.702Z,39.58
2023-03-06T11:02:13.781Z,39.92
2023-03-06T11:06:14.069Z,38.43
2023-03-06T11:14:33.052Z,25.00
2023-03-06T11:18:33.063Z,27.35
2023-03-06T11:22:34.678Z,30.79
2023-03-06T11:26:33.102Z,34.17
2023-03-06T11:30:33.843Z,32.70
2023-03-06T11:34:33.071Z,36.72
2023-03-06T11:38:33.077Z,38.53
2023-03-06T11:42:32.908Z,43.95
2023-03-06T11:46:33.240Z,43.76
2023-03-06T11:50:32.989Z,46.70
2023-03-06T11:54:33.105Z,47.68
2023-03-06T11:58:33.536Z,53.19
2023-03-06T12:02:33.242Z,50.63
2023-03-06T12:06:33.599Z,49.58
2023-03-06T12:10:33.480Z,48.62
2023-03-06T12:14:33.505Z,45.93
2023-03-06T12:18:33.662Z,41.24
2023-03-06T12:22:34.079Z,41.84
2023-03-06T12:26:33.743Z,43.45
2023-03-06T12:30:33.849Z,44.52
2023-03-06T12:34:33.969Z,51.31
2023-03-06T12:38:34.086Z,46.72
2023-03-06T12:42:34.224Z,47.76
2023-03-06T12:46:34.324Z,48.74
2023-03-06T12:50:34.441Z,51.53
2023-03-06T12:54:34.561Z,53.80
2023-03-06T12:58:34.642Z,90.65
2023-03-06T13:02:34.776Z,98.11
2023-03-06T13:06:39.189Z,93.68
2023-03-06T13:10:35.769Z,92.56
2023-03-06T13:14:35.807Z,73.96
2023-03-06T13:18:34.703Z,51.59
2023-03-06T13:22:34.696Z,47.71
2023-03-06T13:26:34.634Z,31.77
2023-03-06T13:30:34.597Z,30.17
2023-03-06T13:34:34.509Z,26.18
2023-03-06T13:38:34.564Z,30.14
2023-03-06T13:42:34.475Z,29.16
2023-03-06T13:46:34.706Z,48.89
2023-03-06T13:50:34.438Z,49.49
2023-03-06T13:54:34.390Z,61.82
2023-03-06T13:58:34.401Z,69.62
2023-03-06T14:02:34.324Z,74.79
2023-03-06T14:06:34.272Z,74.65
2023-03-06T14:10:34.230Z,68.88
2023-03-06T14:14:36.194Z,88.88
2023-03-06T14:18:34.670Z,95.22
2023-03-06T14:22:35.643Z,90.90
2023-03-06T14:26:34.439Z,77.43
2023-03-06T14:30:35.093Z,75.88
2023-03-06T14:34:34.676Z,113.83
2023-03-06T14:38:34.764Z,81.07
2023-03-06T14:42:35.160Z,58.31
2023-03-06T14:46:35.364Z,66.27
2023-03-06T14:50:35.173Z,59.90
2023-03-06T14:54:35.081Z,60.31
2023-03-06T14:58:35.341Z,63.98
2023-03-06T15:02:35.170Z,86.06
2023-03-06T15:06:35.398Z,85.60
2023-03-06T15:10:35.276Z,72.65
2023-03-06T15:14:35.407Z,70.25
2023-03-06T15:18:35.459Z,74.39
2023-03-06T15:22:35.408Z,69.83
2023-03-06T15:26:35.479Z,68.45
2023-03-06T15:30:35.596Z,60.33
2023-03-06T15:34:35.678Z,68.98
2023-03-06T15:38:35.701Z,67.45
2023-03-06T15:42:35.846Z,67.14
2023-03-06T15:46:35.994Z,63.69
2023-03-06T15:50:36.124Z,65.46
2023-03-06T15:54:36.180Z,67.60
2023-03-06T15:58:36.244Z,62.46
2023-03-06T16:02:36.317Z,59.73
2023-03-06T16:06:43.131Z,56.23
2023-03-06T16:10:36.384Z,58.44
2023-03-06T16:14:36.371Z,59.43
2023-03-06T16:18:36.297Z,62.53
2023-03-06T16:22:36.307Z,55.74
2023-03-06T16:26:36.349Z,59.23
2023-03-06T16:30:36.292Z,60.63
2023-03-06T16:34:36.297Z,58.48
2023-03-06T16:38:36.123Z,61.29
2023-03-06T16:42:36.122Z,68.20
2023-03-06T16:46:36.071Z,100.96
2023-03-06T16:50:36.053Z,95.23
2023-03-06T16:54:36.157Z,63.73
2023-03-06T16:58:35.955Z,55.86
2023-03-06T17:02:35.989Z,30.05
2023-03-06T17:06:36.007Z,37.63
2023-03-06T17:10:36.183Z,32.62
2023-03-06T17:14:36.141Z,40.23
2023-03-06T17:18:36.712Z,48.98
2023-03-06T17:22:36.475Z,32.99
2023-03-06T17:26:36.490Z,34.80
2023-03-06T17:30:36.606Z,37.88
2023-03-06T17:34:36.696Z,48.96
2023-03-06T17:38:36.796Z,52.08
2023-03-06T17:42:36.920Z,38.35
2023-03-06T17:46:37.034Z,36.27
2023-03-06T17:50:37.120Z,37.23
2023-03-06T17:54:37.238Z,37.49
2023-03-06T17:58:38.166Z,35.60
2023-03-06T18:02:37.820Z,27.80
2023-03-06T18:06:37.596Z,34.85
2023-03-06T18:10:37.739Z,37.76
2023-03-06T18:14:37.859Z,37.89
2023-03-06T18:18:37.978Z,35.44
2023-03-06T18:22:38.145Z,35.12
2023-03-06T18:26:38.202Z,37.75
2023-03-06T18:30:38.317Z,36.87
2023-03-06T18:34:38.553Z,33.71
2023-03-06T18:38:38.675Z,40.81
2023-03-06T18:42:38.599Z,34.86
2023-03-06T18:46:38.739Z,42.81
2023-03-06T18:50:38.888Z,44.68
2023-03-06T18:54:38.991Z,42.91
2023-03-06T18:58:39.027Z,38.40
2023-03-06T19:02:39.204Z,46.34
2023-03-06T19:06:39.300Z,40.35
2023-03-06T19:10:39.477Z,36.89
2023-03-06T19:14:39.485Z,36.40
2023-03-06T19:18:39.764Z,38.70
2023-03-06T19:22:39.803Z,34.72
2023-03-06T19:26:39.849Z,30.84
2023-03-06T19:30:39.989Z,25.00
2023-03-06T19:34:40.156Z,28.65
2023-03-06T19:38:40.150Z,36.53
2023-03-06T19:42:40.313Z,42.80
2023-03-06T19:46:40.358Z,34.42
2023-03-06T19:50:40.448Z,35.72
2023-03-06T19:54:40.451Z,32.47
2023-03-06T19:58:40.586Z,36.83
2023-03-06T20:02:40.780Z,33.66
2023-03-06T20:06:40.850Z,34.08
2023-03-06T20:10:40.873Z,33.35
2023-03-06T20:14:40.992Z,40.95
2023-03-06T20:18:41.064Z,37.72
2023-03-06T20:22:41.161Z,26.82
2023-03-06T20:26:41.327Z,30.42
2023-03-06T20:30:42.269Z,33.51
2023-03-06T20:34:41.484Z,29.32
2023-03-06T20:38:41.554Z,28.51
2023-03-06T20:42:41.662Z,26.52
2023-03-06T20:46:41.943Z,29.51
2023-03-06T20:50:41.890Z,37.85
2023-03-06T20:54:41.954Z,27.68
2023-03-06T20:58:42.021Z,28.22
2023-03-06T21:02:42.173Z,30.29
2023-03-06T21:06:42.346Z,26.89
2023-03-06T21:10:42.373Z,31.74
2023-03-06T21:14:42.509Z,29.76
2023-03-06T21:18:42.541Z,29.42
2023-03-06T21:22:42.685Z,31.31
2023-03-06T21:26:42.700Z,30.50
2023-03-06T21:30:42.855Z,26.38
2023-03-06T21:34:44.819Z,28.83
2023-03-06T21:38:43.215Z,32.30
2023-03-06T21:42:43.228Z,34.59
2023-03-06T21:46:43.351Z,32.81
2023-03-06T21:50:43.400Z,30.94
2023-03-06T21:54:44.464Z,31.80
2023-03-06T21:58:43.570Z,31.51
2023-03-06T22:02:43.649Z,30.06
2023-03-06T22:06:43.838Z,26.73
2023-03-06T22:10:43.868Z,30.31
2023-03-06T22:14:43.992Z,28.90
2023-03-06T22:18:44.000Z,31.76
2023-03-06T22:22:44.220Z,32.53
2023-03-06T22:26:44.364Z,31.20
2023-03-06T22:30:44.393Z,27.07
2023-03-06T22:34:44.492Z,32.41
2023-03-06T22:38:44.575Z,25.43
2023-03-06T22:42:44.735Z,36.70
2023-03-06T22:46:44.874Z,26.91
2023-03-06T22:50:44.926Z,30.11
2023-03-06T22:54:45.051Z,30.21
2023-03-06T22:58:45.087Z,30.84
2023-03-06T23:02:45.236Z,35.43
2023-03-06T23:06:45.312Z,36.30
2023-03-06T23:10:45.439Z,33.59
2023-03-06T23:14:45.550Z,29.11
2023-03-06T23:18:45.600Z,33.28
2023-03-06T23:22:45.850Z,33.08
2023-03-06T23:26:45.803Z,33.32
2023-03-06T23:30:45.947Z,31.26
2023-03-06T23:34:46.046Z,33.05
2023-03-06T23:38:46.206Z,29.61
2023-03-06T23:42:46.329Z,29.43
2023-03-06T23:46:46.482Z,30.04
2023-03-06T23:50:46.575Z,27.48
2023-03-06T23:54:46.641Z,31.06
2023-03-06T23:58:46.762Z,29.75
